sensor_id;sensor_type;location;lat;lon;timestamp;pressure;altitude;pressure_sealevel;temperature;humidity
43741;BME280;29352;48.708;9.290;2024-03-02T00:00:23;96700.81;;;1.53;70.75
43741;BME280;29352;48.708;9.290;2024-03-02T00:02:50;96694.72;;;2.17;70.06
43741;BME280;29352;48.708;9.290;2024-03-02T00:05:21;96689.88;;;1.93;70.35
43741;BME280;29352;48.708;9.290;2024-03-02T00:07:55;96693.59;;;2.05;70.15
43741;BME280;29352;48.708;9.290;2024-03-02T00:10:28;96687.63;;;1.68;71.24
43741;BME280;29352;48.708;9.290;2024-03-02T00:13:02;96693.06;;;1.45;72.11
43741;BME280;29352;48.708;9.290;2024-03-02T00:15:48;96695.97;;;1.50;71.49
43741;BME280;29352;48.708;9.290;2024-03-02T00:18:20;96697.31;;;1.46;71.42
43741;BME280;29352;48.708;9.290;2024-03-02T00:20:56;96699.34;;;1.65;70.82
43741;BME280;29352;48.708;9.290;2024-03-02T00:23:23;96702.47;;;1.54;70.81
43741;BME280;29352;48.708;9.290;2024-03-02T00:25:54;96698.53;;;1.65;70.92
43741;BME280;29352;48.708;9.290;2024-03-02T00:28:31;96704.53;;;1.59;70.33
43741;BME280;29352;48.708;9.290;2024-03-02T00:31:08;96708.25;;;1.43;71.09
43741;BME280;29352;48.708;9.290;2024-03-02T00:36:10;96708.47;;;0.76;73.49
43741;BME280;29352;48.708;9.290;2024-03-02T00:38:48;96715.22;;;1.00;72.73
43741;BME280;29352;48.708;9.290;2024-03-02T00:41:19;96706.84;;;1.47;71.00
43741;BME280;29352;48.708;9.290;2024-03-02T00:44:00;96708.59;;;1.04;72.40
43741;BME280;29352;48.708;9.290;2024-03-02T00:46:30;96705.22;;;1.46;72.00
43741;BME280;29352;48.708;9.290;2024-03-02T00:49:00;96704.97;;;1.41;71.89
43741;BME280;29352;48.708;9.290;2024-03-02T00:51:29;96710.28;;;1.26;71.77
43741;BME280;29352;48.708;9.290;2024-03-02T00:54:05;96703.38;;;1.25;71.44
43741;BME280;29352;48.708;9.290;2024-03-02T00:56:34;96706.50;;;1.14;71.92
43741;BME280;29352;48.708;9.290;2024-03-02T00:59:00;96706.84;;;1.26;71.44
43741;BME280;29352;48.708;9.290;2024-03-02T01:01:26;96700.72;;;1.04;71.77
43741;BME280;29352;48.708;9.290;2024-03-02T01:03:52;96703.19;;;1.05;71.21
43741;BME280;29352;48.708;9.290;2024-03-02T01:06:18;96703.75;;;0.86;71.28
43741;BME280;29352;48.708;9.290;2024-03-02T01:08:45;96701.50;;;0.68;71.71
43741;BME280;29352;48.708;9.290;2024-03-02T01:11:12;96698.84;;;0.83;72.54
43741;BME280;29352;48.708;9.290;2024-03-02T01:13:37;96702.75;;;0.72;72.78
43741;BME280;29352;48.708;9.290;2024-03-02T01:16:03;96705.19;;;0.74;73.17
43741;BME280;29352;48.708;9.290;2024-03-02T01:18:29;96697.91;;;1.05;72.50
43741;BME280;29352;48.708;9.290;2024-03-02T01:20:56;96698.97;;;1.11;71.74
43741;BME280;29352;48.708;9.290;2024-03-02T01:23:22;96694.81;;;1.16;72.15
43741;BME280;29352;48.708;9.290;2024-03-02T01:25:49;96695.03;;;1.00;71.40
43741;BME280;29352;48.708;9.290;2024-03-02T01:28:16;96691.38;;;1.01;71.12
43741;BME280;29352;48.708;9.290;2024-03-02T01:30:42;96697.78;;;0.62;71.73
43741;BME280;29352;48.708;9.290;2024-03-02T01:33:08;96702.28;;;0.83;70.87
43741;BME280;29352;48.708;9.290;2024-03-02T01:35:34;96696.19;;;1.12;71.21
43741;BME280;29352;48.708;9.290;2024-03-02T01:38:03;96686.56;;;1.41;69.69
43741;BME280;29352;48.708;9.290;2024-03-02T01:40:32;96682.56;;;1.45;68.76
43741;BME280;29352;48.708;9.290;2024-03-02T01:42:59;96687.91;;;0.79;71.14
43741;BME280;29352;48.708;9.290;2024-03-02T01:45:24;96692.69;;;0.76;72.10
43741;BME280;29352;48.708;9.290;2024-03-02T01:47:50;96696.00;;;-0.05;73.59
43741;BME280;29352;48.708;9.290;2024-03-02T01:50:24;96694.41;;;0.24;72.49
43741;BME280;29352;48.708;9.290;2024-03-02T01:52:51;96692.97;;;0.66;73.09
43741;BME280;29352;48.708;9.290;2024-03-02T01:55:17;96695.34;;;0.61;73.57
43741;BME280;29352;48.708;9.290;2024-03-02T01:57:43;96691.25;;;0.73;72.63
43741;BME280;29352;48.708;9.290;2024-03-02T02:00:11;96691.28;;;0.58;73.09
43741;BME280;29352;48.708;9.290;2024-03-02T02:02:37;96685.16;;;0.87;71.92
43741;BME280;29352;48.708;9.290;2024-03-02T02:05:03;96683.56;;;0.71;71.16
43741;BME280;29352;48.708;9.290;2024-03-02T02:07:29;96679.75;;;0.59;72.39
43741;BME280;29352;48.708;9.290;2024-03-02T02:09:55;96689.19;;;0.54;73.07
43741;BME280;29352;48.708;9.290;2024-03-02T02:12:21;96686.28;;;0.48;72.29
43741;BME280;29352;48.708;9.290;2024-03-02T02:14:49;96684.78;;;0.39;73.21
43741;BME280;29352;48.708;9.290;2024-03-02T02:17:19;96688.88;;;0.19;72.51
43741;BME280;29352;48.708;9.290;2024-03-02T02:19:45;96689.59;;;0.13;72.23
43741;BME280;29352;48.708;9.290;2024-03-02T02:22:11;96679.56;;;0.16;70.92
43741;BME280;29352;48.708;9.290;2024-03-02T02:24:40;96676.53;;;-0.10;71.25
43741;BME280;29352;48.708;9.290;2024-03-02T02:27:07;96682.31;;;-0.15;72.29
43741;BME280;29352;48.708;9.290;2024-03-02T02:29:34;96672.47;;;-0.13;72.11
43741;BME280;29352;48.708;9.290;2024-03-02T02:32:00;96684.59;;;-0.12;70.67
43741;BME280;29352;48.708;9.290;2024-03-02T02:34:26;96673.75;;;-0.09;72.73
43741;BME280;29352;48.708;9.290;2024-03-02T02:36:52;96675.22;;;0.09;73.09
43741;BME280;29352;48.708;9.290;2024-03-02T02:39:21;96675.38;;;-0.08;72.67
43741;BME280;29352;48.708;9.290;2024-03-02T02:41:48;96678.91;;;-0.01;73.06
43741;BME280;29352;48.708;9.290;2024-03-02T02:44:14;96673.88;;;0.28;71.44
43741;BME280;29352;48.708;9.290;2024-03-02T02:46:40;96670.19;;;-0.16;71.76
43741;BME280;29352;48.708;9.290;2024-03-02T02:49:06;96665.53;;;0.09;72.16
43741;BME280;29352;48.708;9.290;2024-03-02T02:51:32;96662.81;;;0.17;71.34
43741;BME280;29352;48.708;9.290;2024-03-02T02:53:58;96666.25;;;0.18;71.26
43741;BME280;29352;48.708;9.290;2024-03-02T02:56:23;96664.66;;;0.32;73.04
43741;BME280;29352;48.708;9.290;2024-03-02T02:58:49;96659.13;;;0.41;72.82
43741;BME280;29352;48.708;9.290;2024-03-02T03:01:15;96651.97;;;0.06;72.83
43741;BME280;29352;48.708;9.290;2024-03-02T03:03:45;96660.69;;;0.36;73.88
43741;BME280;29352;48.708;9.290;2024-03-02T03:06:12;96655.28;;;-0.01;72.03
43741;BME280;29352;48.708;9.290;2024-03-02T03:08:37;96652.22;;;0.11;71.84
43741;BME280;29352;48.708;9.290;2024-03-02T03:11:04;96653.72;;;-0.10;72.34
43741;BME280;29352;48.708;9.290;2024-03-02T03:13:34;96658.72;;;-0.15;71.94
43741;BME280;29352;48.708;9.290;2024-03-02T03:16:00;96658.34;;;-0.27;72.78
43741;BME280;29352;48.708;9.290;2024-03-02T03:18:25;96659.94;;;-0.40;73.73
43741;BME280;29352;48.708;9.290;2024-03-02T03:20:51;96659.84;;;-0.32;73.78
43741;BME280;29352;48.708;9.290;2024-03-02T03:23:16;96660.41;;;-0.22;71.87
43741;BME280;29352;48.708;9.290;2024-03-02T03:25:43;96664.78;;;-0.37;72.43
43741;BME280;29352;48.708;9.290;2024-03-02T03:28:09;96663.75;;;-0.28;71.60
43741;BME280;29352;48.708;9.290;2024-03-02T03:30:39;96668.19;;;-0.29;71.18
43741;BME280;29352;48.708;9.290;2024-03-02T03:33:05;96660.63;;;0.06;69.85
43741;BME280;29352;48.708;9.290;2024-03-02T03:35:31;96668.53;;;-0.55;70.94
43741;BME280;29352;48.708;9.290;2024-03-02T03:37:58;96670.97;;;-0.76;71.69
43741;BME280;29352;48.708;9.290;2024-03-02T03:40:24;96662.03;;;-0.59;71.01
43741;BME280;29352;48.708;9.290;2024-03-02T03:42:50;96662.03;;;-0.59;70.78
43741;BME280;29352;48.708;9.290;2024-03-02T03:45:16;96658.44;;;-0.58;72.38
43741;BME280;29352;48.708;9.290;2024-03-02T03:47:41;96656.78;;;-0.59;72.76
43741;BME280;29352;48.708;9.290;2024-03-02T03:50:07;96664.66;;;-0.82;73.32
43741;BME280;29352;48.708;9.290;2024-03-02T03:52:33;96665.97;;;-0.63;70.77
43741;BME280;29352;48.708;9.290;2024-03-02T03:54:59;96674.22;;;-0.97;71.46
43741;BME280;29352;48.708;9.290;2024-03-02T03:57:26;96662.78;;;-0.96;73.03
43741;BME280;29352;48.708;9.290;2024-03-02T03:59:52;96664.38;;;-0.64;72.38
43741;BME280;29352;48.708;9.290;2024-03-02T04:02:18;96659.28;;;-0.65;71.10
43741;BME280;29352;48.708;9.290;2024-03-02T04:04:44;96663.94;;;-0.76;70.71
43741;BME280;29352;48.708;9.290;2024-03-02T04:07:10;96656.31;;;-0.39;70.68
43741;BME280;29352;48.708;9.290;2024-03-02T04:09:35;96662.56;;;-0.26;69.45
43741;BME280;29352;48.708;9.290;2024-03-02T04:12:01;96664.38;;;-1.18;71.86
43741;BME280;29352;48.708;9.290;2024-03-02T04:14:26;96670.19;;;-1.39;72.55
43741;BME280;29352;48.708;9.290;2024-03-02T04:16:52;96676.91;;;-1.45;72.87
43741;BME280;29352;48.708;9.290;2024-03-02T04:19:17;96673.03;;;-1.57;73.96
43741;BME280;29352;48.708;9.290;2024-03-02T04:21:43;96672.91;;;-1.72;74.76
43741;BME280;29352;48.708;9.290;2024-03-02T04:24:08;96674.84;;;-1.57;74.20
43741;BME280;29352;48.708;9.290;2024-03-02T04:26:34;96675.94;;;-1.52;72.42
43741;BME280;29352;48.708;9.290;2024-03-02T04:28:59;96679.41;;;-1.51;71.75
43741;BME280;29352;48.708;9.290;2024-03-02T04:31:25;96673.03;;;-1.57;72.06
43741;BME280;29352;48.708;9.290;2024-03-02T04:33:50;96669.63;;;-1.57;72.70
43741;BME280;29352;48.708;9.290;2024-03-02T04:36:16;96678.28;;;-1.57;73.17
43741;BME280;29352;48.708;9.290;2024-03-02T04:38:41;96667.81;;;-1.65;72.17
43741;BME280;29352;48.708;9.290;2024-03-02T04:41:07;96665.47;;;-1.52;73.40
43741;BME280;29352;48.708;9.290;2024-03-02T04:43:34;96670.72;;;-1.52;72.12
43741;BME280;29352;48.708;9.290;2024-03-02T04:46:00;96675.94;;;-1.52;73.49
43741;BME280;29352;48.708;9.290;2024-03-02T04:48:26;96680.56;;;-1.62;72.35
43741;BME280;29352;48.708;9.290;2024-03-02T04:50:52;96676.78;;;-1.51;71.48
43741;BME280;29352;48.708;9.290;2024-03-02T04:53:18;96679.31;;;-1.82;71.59
43741;BME280;29352;48.708;9.290;2024-03-02T04:55:43;96678.16;;;-1.88;72.77
43741;BME280;29352;48.708;9.290;2024-03-02T04:58:09;96673.13;;;-1.90;71.70
43741;BME280;29352;48.708;9.290;2024-03-02T05:00:35;96678.78;;;-1.78;72.42
43741;BME280;29352;48.708;9.290;2024-03-02T05:03:02;96675.81;;;-1.67;72.54
43741;BME280;29352;48.708;9.290;2024-03-02T05:05:28;96670.28;;;-1.72;71.95
43741;BME280;29352;48.708;9.290;2024-03-02T05:07:53;96670.44;;;-1.65;71.96
43741;BME280;29352;48.708;9.290;2024-03-02T05:10:19;96668.94;;;-1.59;71.66
43741;BME280;29352;48.708;9.290;2024-03-02T05:12:45;96667.53;;;-1.86;74.99
43741;BME280;29352;48.708;9.290;2024-03-02T05:15:12;96672.44;;;-1.75;74.36
43741;BME280;29352;48.708;9.290;2024-03-02T05:17:40;96676.22;;;-1.86;74.28
43741;BME280;29352;48.708;9.290;2024-03-02T05:20:10;96675.53;;;-1.72;71.69
43741;BME280;29352;48.708;9.290;2024-03-02T05:22:37;96678.84;;;-1.86;72.17
43741;BME280;29352;48.708;9.290;2024-03-02T05:25:04;96677.72;;;-2.00;72.03
43741;BME280;29352;48.708;9.290;2024-03-02T05:27:30;96678.38;;;-2.22;72.10
43741;BME280;29352;48.708;9.290;2024-03-02T05:29:58;96681.34;;;-2.17;71.63
43741;BME280;29352;48.708;9.290;2024-03-02T05:32:24;96678.53;;;-2.16;72.48
43741;BME280;29352;48.708;9.290;2024-03-02T05:34:50;96679.94;;;-1.80;71.28
43741;BME280;29352;48.708;9.290;2024-03-02T05:37:17;96688.34;;;-2.09;72.04
43741;BME280;29352;48.708;9.290;2024-03-02T05:39:43;96689.16;;;-2.09;72.02
43741;BME280;29352;48.708;9.290;2024-03-02T05:42:09;96695.53;;;-2.20;73.50
43741;BME280;29352;48.708;9.290;2024-03-02T05:44:38;96693.69;;;-1.86;70.92
43741;BME280;29352;48.708;9.290;2024-03-02T05:47:03;96687.38;;;-1.45;70.10
43741;BME280;29352;48.708;9.290;2024-03-02T05:49:29;96688.66;;;-2.04;70.71
43741;BME280;29352;48.708;9.290;2024-03-02T05:51:55;96691.63;;;-2.16;73.11
43741;BME280;29352;48.708;9.290;2024-03-02T05:54:21;96694.38;;;-2.09;71.97
43741;BME280;29352;48.708;9.290;2024-03-02T05:56:47;96688.69;;;-2.29;72.65
43741;BME280;29352;48.708;9.290;2024-03-02T05:59:12;96683.38;;;-1.72;71.95
43741;BME280;29352;48.708;9.290;2024-03-02T06:01:39;96688.16;;;-1.92;72.66
43741;BME280;29352;48.708;9.290;2024-03-02T06:04:05;96690.94;;;-2.18;73.29
43741;BME280;29352;48.708;9.290;2024-03-02T06:06:32;96695.53;;;-2.11;73.72
43741;BME280;29352;48.708;9.290;2024-03-02T06:09:03;96688.19;;;-2.16;73.33
43741;BME280;29352;48.708;9.290;2024-03-02T06:11:33;96693.72;;;-2.60;74.69
43741;BME280;29352;48.708;9.290;2024-03-02T06:13:59;96703.19;;;-2.59;72.93
43741;BME280;29352;48.708;9.290;2024-03-02T06:16:24;96705.31;;;-2.79;73.91
43741;BME280;29352;48.708;9.290;2024-03-02T06:18:50;96708.59;;;-2.52;72.92
43741;BME280;29352;48.708;9.290;2024-03-02T06:21:16;96701.59;;;-2.27;72.01
43741;BME280;29352;48.708;9.290;2024-03-02T06:23:43;96711.88;;;-2.42;71.79
43741;BME280;29352;48.708;9.290;2024-03-02T06:26:09;96703.56;;;-2.38;72.25
43741;BME280;29352;48.708;9.290;2024-03-02T06:28:35;96707.13;;;-2.06;71.02
43741;BME280;29352;48.708;9.290;2024-03-02T06:31:01;96720.00;;;-3.28;73.19
43741;BME280;29352;48.708;9.290;2024-03-02T06:33:27;96709.41;;;-2.68;71.61
43741;BME280;29352;48.708;9.290;2024-03-02T06:35:54;96708.41;;;-2.59;72.72
43741;BME280;29352;48.708;9.290;2024-03-02T06:38:19;96711.97;;;-2.85;73.57
43741;BME280;29352;48.708;9.290;2024-03-02T06:40:45;96708.44;;;-2.26;72.31
43741;BME280;29352;48.708;9.290;2024-03-02T06:43:11;96710.03;;;-2.66;73.72
43741;BME280;29352;48.708;9.290;2024-03-02T06:45:36;96705.50;;;-2.72;75.62
43741;BME280;29352;48.708;9.290;2024-03-02T06:48:02;96712.50;;;-1.91;72.32
43741;BME280;29352;48.708;9.290;2024-03-02T06:50:27;96717.94;;;-2.33;74.78
43741;BME280;29352;48.708;9.290;2024-03-02T06:52:53;96727.69;;;-1.78;74.04
43741;BME280;29352;48.708;9.290;2024-03-02T06:55:21;96736.47;;;-1.63;72.53
43741;BME280;29352;48.708;9.290;2024-03-02T06:57:47;96732.13;;;-1.95;72.90
43741;BME280;29352;48.708;9.290;2024-03-02T07:00:13;96730.25;;;-1.46;70.90
43741;BME280;29352;48.708;9.290;2024-03-02T07:02:39;96724.78;;;-1.20;69.71
43741;BME280;29352;48.708;9.290;2024-03-02T07:05:07;96735.25;;;-1.28;70.35
43741;BME280;29352;48.708;9.290;2024-03-02T07:07:33;96730.09;;;-1.05;69.20
43741;BME280;29352;48.708;9.290;2024-03-02T07:10:00;96727.44;;;-0.97;68.34
43741;BME280;29352;48.708;9.290;2024-03-02T07:12:26;96727.25;;;-0.64;68.71
43741;BME280;29352;48.708;9.290;2024-03-02T07:14:52;96733.88;;;-0.76;70.77
43741;BME280;29352;48.708;9.290;2024-03-02T07:17:30;96727.16;;;-0.48;69.73
43741;BME280;29352;48.708;9.290;2024-03-02T07:19:57;96719.34;;;-0.56;69.87
43741;BME280;29352;48.708;9.290;2024-03-02T07:22:23;96721.13;;;-0.10;69.26
43741;BME280;29352;48.708;9.290;2024-03-02T07:24:49;96714.44;;;1.21;65.53
43741;BME280;29352;48.708;9.290;2024-03-02T07:27:17;96714.59;;;1.77;64.44
43741;BME280;29352;48.708;9.290;2024-03-02T07:29:43;96711.78;;;2.97;63.66
43741;BME280;29352;48.708;9.290;2024-03-02T07:32:10;96730.03;;;2.64;65.86
43741;BME280;29352;48.708;9.290;2024-03-02T07:34:36;96720.16;;;3.75;64.04
43741;BME280;29352;48.708;9.290;2024-03-02T07:37:03;96714.84;;;4.28;62.13
43741;BME280;29352;48.708;9.290;2024-03-02T07:39:29;96708.22;;;5.42;58.89
43741;BME280;29352;48.708;9.290;2024-03-02T07:41:55;96712.34;;;6.45;56.74
43741;BME280;29352;48.708;9.290;2024-03-02T07:44:22;96698.75;;;8.29;52.84
43741;BME280;29352;48.708;9.290;2024-03-02T07:46:48;96718.00;;;7.29;55.90
43741;BME280;29352;48.708;9.290;2024-03-02T07:49:21;96720.16;;;5.90;58.70
43741;BME280;29352;48.708;9.290;2024-03-02T07:51:46;96723.16;;;5.23;59.52
43741;BME280;29352;48.708;9.290;2024-03-02T07:54:12;96723.63;;;3.96;62.78
43741;BME280;29352;48.708;9.290;2024-03-02T07:56:38;96715.81;;;4.81;61.67
43741;BME280;29352;48.708;9.290;2024-03-02T07:59:04;96716.84;;;5.69;59.18
43741;BME280;29352;48.708;9.290;2024-03-02T08:01:31;96712.78;;;5.22;60.15
43741;BME280;29352;48.708;9.290;2024-03-02T08:04:01;96715.06;;;5.12;60.32
43741;BME280;29352;48.708;9.290;2024-03-02T08:06:29;96716.25;;;5.67;58.84
43741;BME280;29352;48.708;9.290;2024-03-02T08:08:56;96717.09;;;4.58;61.15
43741;BME280;29352;48.708;9.290;2024-03-02T08:11:26;96714.34;;;4.91;60.60
43741;BME280;29352;48.708;9.290;2024-03-02T08:13:52;96716.75;;;4.99;60.80
43741;BME280;29352;48.708;9.290;2024-03-02T08:16:22;96716.56;;;5.01;62.08
43741;BME280;29352;48.708;9.290;2024-03-02T08:18:49;96712.91;;;4.89;61.59
43741;BME280;29352;48.708;9.290;2024-03-02T08:21:15;96711.81;;;4.25;62.01
43741;BME280;29352;48.708;9.290;2024-03-02T08:23:42;96693.59;;;5.33;61.31
43741;BME280;29352;48.708;9.290;2024-03-02T08:26:09;96696.00;;;6.30;60.43
43741;BME280;29352;48.708;9.290;2024-03-02T08:28:36;96694.44;;;5.97;59.69
43741;BME280;29352;48.708;9.290;2024-03-02T08:31:06;96691.00;;;5.58;60.73
43741;BME280;29352;48.708;9.290;2024-03-02T08:33:32;96693.94;;;6.07;60.36
43741;BME280;29352;48.708;9.290;2024-03-02T08:35:58;96696.06;;;6.41;59.41
43741;BME280;29352;48.708;9.290;2024-03-02T08:38:24;96688.22;;;8.11;56.81
43741;BME280;29352;48.708;9.290;2024-03-02T08:40:51;96695.97;;;8.71;55.67
43741;BME280;29352;48.708;9.290;2024-03-02T08:43:17;96698.44;;;9.13;54.41
43741;BME280;29352;48.708;9.290;2024-03-02T08:45:43;96694.47;;;7.74;56.60
43741;BME280;29352;48.708;9.290;2024-03-02T08:48:10;96698.84;;;8.11;55.28
43741;BME280;29352;48.708;9.290;2024-03-02T08:50:36;96691.09;;;8.21;55.69
43741;BME280;29352;48.708;9.290;2024-03-02T08:53:05;96686.47;;;8.87;54.21
43741;BME280;29352;48.708;9.290;2024-03-02T08:55:31;96689.66;;;9.69;53.81
43741;BME280;29352;48.708;9.290;2024-03-02T08:57:56;96691.31;;;9.59;52.16
43741;BME280;29352;48.708;9.290;2024-03-02T09:00:23;96678.50;;;10.57;50.73
43741;BME280;29352;48.708;9.290;2024-03-02T09:02:49;96688.66;;;9.59;53.02
43741;BME280;29352;48.708;9.290;2024-03-02T09:05:16;96685.44;;;8.41;52.71
43741;BME280;29352;48.708;9.290;2024-03-02T09:07:41;96684.13;;;8.90;52.88
43741;BME280;29352;48.708;9.290;2024-03-02T09:10:08;96680.28;;;9.67;52.77
43741;BME280;29352;48.708;9.290;2024-03-02T09:12:35;96677.16;;;10.37;50.48
43741;BME280;29352;48.708;9.290;2024-03-02T09:15:01;96672.16;;;11.02;49.77
43741;BME280;29352;48.708;9.290;2024-03-02T09:17:28;96680.47;;;11.05;51.01
43741;BME280;29352;48.708;9.290;2024-03-02T09:19:54;96680.34;;;11.93;49.74
43741;BME280;29352;48.708;9.290;2024-03-02T09:22:20;96675.41;;;12.49;47.86
43741;BME280;29352;48.708;9.290;2024-03-02T09:24:46;96671.56;;;12.03;47.56
43741;BME280;29352;48.708;9.290;2024-03-02T09:27:11;96675.25;;;12.71;46.94
43741;BME280;29352;48.708;9.290;2024-03-02T09:29:37;96687.06;;;12.01;45.78
43741;BME280;29352;48.708;9.290;2024-03-02T09:32:04;96679.34;;;10.07;49.09
43741;BME280;29352;48.708;9.290;2024-03-02T09:34:31;96672.41;;;9.72;49.60
43741;BME280;29352;48.708;9.290;2024-03-02T09:36:57;96673.28;;;10.28;49.62
43741;BME280;29352;48.708;9.290;2024-03-02T09:39:23;96672.47;;;11.54;48.45
43741;BME280;29352;48.708;9.290;2024-03-02T09:41:51;96665.78;;;9.91;50.02
43741;BME280;29352;48.708;9.290;2024-03-02T09:44:17;96664.66;;;11.75;47.20
43741;BME280;29352;48.708;9.290;2024-03-02T09:46:43;96661.44;;;11.73;47.11
43741;BME280;29352;48.708;9.290;2024-03-02T09:49:10;96649.78;;;12.59;45.63
43741;BME280;29352;48.708;9.290;2024-03-02T09:51:40;96663.94;;;11.08;47.13
43741;BME280;29352;48.708;9.290;2024-03-02T09:54:07;96657.47;;;10.99;48.07
43741;BME280;29352;48.708;9.290;2024-03-02T09:56:33;96651.53;;;10.53;49.30
43741;BME280;29352;48.708;9.290;2024-03-02T09:58:59;96650.53;;;10.59;49.11
43741;BME280;29352;48.708;9.290;2024-03-02T10:01:25;96651.13;;;10.83;48.66
43741;BME280;29352;48.708;9.290;2024-03-02T10:03:51;96643.94;;;10.28;49.76
43741;BME280;29352;48.708;9.290;2024-03-02T10:06:23;96629.72;;;12.61;46.68
43741;BME280;29352;48.708;9.290;2024-03-02T10:08:50;96629.09;;;12.44;46.03
43741;BME280;29352;48.708;9.290;2024-03-02T10:11:33;96630.19;;;11.78;46.48
43741;BME280;29352;48.708;9.290;2024-03-02T10:14:13;96633.31;;;11.16;48.31
43741;BME280;29352;48.708;9.290;2024-03-02T10:16:41;96632.25;;;11.66;46.72
43741;BME280;29352;48.708;9.290;2024-03-02T10:19:23;96626.81;;;12.20;45.84
43741;BME280;29352;48.708;9.290;2024-03-02T10:21:53;96615.50;;;11.76;46.95
43741;BME280;29352;48.708;9.290;2024-03-02T10:24:21;96632.47;;;9.43;50.82
43741;BME280;29352;48.708;9.290;2024-03-02T10:26:48;96624.13;;;11.29;48.49
43741;BME280;29352;48.708;9.290;2024-03-02T10:29:14;96623.91;;;11.95;47.24
43741;BME280;29352;48.708;9.290;2024-03-02T10:31:43;96631.91;;;11.57;47.37
43741;BME280;29352;48.708;9.290;2024-03-02T10:34:10;96625.88;;;12.09;46.54
43741;BME280;29352;48.708;9.290;2024-03-02T10:36:40;96612.69;;;11.93;46.57
43741;BME280;29352;48.708;9.290;2024-03-02T10:39:09;96616.16;;;11.93;47.48
43741;BME280;29352;48.708;9.290;2024-03-02T10:41:36;96618.88;;;11.34;48.07
43741;BME280;29352;48.708;9.290;2024-03-02T10:44:08;96620.63;;;11.82;47.39
43741;BME280;29352;48.708;9.290;2024-03-02T10:46:36;96615.72;;;11.42;47.38
43741;BME280;29352;48.708;9.290;2024-03-02T10:49:04;96605.22;;;12.32;46.79
43741;BME280;29352;48.708;9.290;2024-03-02T10:51:32;96602.19;;;12.18;46.11
43741;BME280;29352;48.708;9.290;2024-03-02T10:53:59;96589.50;;;12.51;45.88
43741;BME280;29352;48.708;9.290;2024-03-02T10:56:34;96603.81;;;11.01;48.97
43741;BME280;29352;48.708;9.290;2024-03-02T10:59:21;96602.91;;;11.17;48.36
43741;BME280;29352;48.708;9.290;2024-03-02T11:01:58;96592.44;;;12.44;47.06
43741;BME280;29352;48.708;9.290;2024-03-02T11:04:28;96587.06;;;12.39;45.45
43741;BME280;29352;48.708;9.290;2024-03-02T11:07:07;96585.06;;;12.72;45.72
43741;BME280;29352;48.708;9.290;2024-03-02T11:09:39;96572.75;;;12.71;46.16
43741;BME280;29352;48.708;9.290;2024-03-02T11:12:15;96567.09;;;12.67;45.14
43741;BME280;29352;48.708;9.290;2024-03-02T11:14:48;96566.50;;;13.28;45.91
43741;BME280;29352;48.708;9.290;2024-03-02T11:17:18;96562.78;;;12.03;45.85
43741;BME280;29352;48.708;9.290;2024-03-02T11:19:46;96558.19;;;11.99;45.40
43741;BME280;29352;48.708;9.290;2024-03-02T11:22:14;96566.63;;;10.94;46.16
43741;BME280;29352;48.708;9.290;2024-03-02T11:24:51;96560.91;;;12.57;45.62
43741;BME280;29352;48.708;9.290;2024-03-02T11:32:57;96539.94;;;13.01;43.85
43741;BME280;29352;48.708;9.290;2024-03-02T11:35:27;96532.53;;;12.50;43.72
43741;BME280;29352;48.708;9.290;2024-03-02T11:37:54;96533.91;;;12.63;43.84
43741;BME280;29352;48.708;9.290;2024-03-02T11:40:24;96531.31;;;11.14;44.39
43741;BME280;29352;48.708;9.290;2024-03-02T11:42:51;96524.16;;;13.15;42.90
43741;BME280;29352;48.708;9.290;2024-03-02T11:45:22;96519.38;;;12.44;44.35
43741;BME280;29352;48.708;9.290;2024-03-02T11:47:57;96521.25;;;12.43;44.10
43741;BME280;29352;48.708;9.290;2024-03-02T11:50:40;96513.69;;;13.08;44.32
43741;BME280;29352;48.708;9.290;2024-03-02T11:53:12;96506.72;;;13.79;43.08
43741;BME280;29352;48.708;9.290;2024-03-02T11:55:39;96503.25;;;13.37;44.38
43741;BME280;29352;48.708;9.290;2024-03-02T11:58:17;96498.09;;;12.79;44.66
43741;BME280;29352;48.708;9.290;2024-03-02T12:00:43;96494.94;;;13.23;44.31
43741;BME280;29352;48.708;9.290;2024-03-02T12:03:13;96488.16;;;12.70;44.67
43741;BME280;29352;48.708;9.290;2024-03-02T12:05:40;96477.16;;;12.61;44.21
43741;BME280;29352;48.708;9.290;2024-03-02T12:08:08;96475.00;;;12.58;44.76
43741;BME280;29352;48.708;9.290;2024-03-02T12:10:35;96474.63;;;12.19;44.71
43741;BME280;29352;48.708;9.290;2024-03-02T12:13:07;96468.56;;;12.39;44.83
43741;BME280;29352;48.708;9.290;2024-03-02T12:15:36;96471.91;;;13.12;42.89
43741;BME280;29352;48.708;9.290;2024-03-02T12:18:03;96468.00;;;12.31;44.25
43741;BME280;29352;48.708;9.290;2024-03-02T12:20:31;96471.28;;;12.64;43.07
43741;BME280;29352;48.708;9.290;2024-03-02T12:23:00;96461.63;;;12.53;44.21
43741;BME280;29352;48.708;9.290;2024-03-02T12:25:28;96468.06;;;12.52;44.69
43741;BME280;29352;48.708;9.290;2024-03-02T12:27:57;96457.28;;;12.31;45.29
43741;BME280;29352;48.708;9.290;2024-03-02T12:30:27;96458.47;;;12.92;44.58
43741;BME280;29352;48.708;9.290;2024-03-02T12:32:56;96456.47;;;12.21;44.62
43741;BME280;29352;48.708;9.290;2024-03-02T12:35:22;96451.91;;;12.21;44.83
43741;BME280;29352;48.708;9.290;2024-03-02T12:37:51;96441.38;;;12.98;44.74
43741;BME280;29352;48.708;9.290;2024-03-02T12:40:19;96447.50;;;13.44;43.83
43741;BME280;29352;48.708;9.290;2024-03-02T12:42:48;96442.66;;;12.60;44.15
43741;BME280;29352;48.708;9.290;2024-03-02T12:45:16;96448.34;;;13.04;44.78
43741;BME280;29352;48.708;9.290;2024-03-02T12:47:49;96436.84;;;13.19;44.51
43741;BME280;29352;48.708;9.290;2024-03-02T12:50:17;96434.63;;;12.60;45.39
43741;BME280;29352;48.708;9.290;2024-03-02T12:52:43;96431.69;;;12.56;44.56
43741;BME280;29352;48.708;9.290;2024-03-02T12:55:09;96421.50;;;12.68;44.17
43741;BME280;29352;48.708;9.290;2024-03-02T12:57:35;96417.50;;;12.61;44.70
43741;BME280;29352;48.708;9.290;2024-03-02T13:00:05;96423.41;;;12.63;44.78
43741;BME280;29352;48.708;9.290;2024-03-02T13:02:36;96431.16;;;11.44;44.13
43741;BME280;29352;48.708;9.290;2024-03-02T13:05:06;96433.16;;;12.16;43.00
43741;BME280;29352;48.708;9.290;2024-03-02T13:07:37;96412.97;;;12.76;42.00
43741;BME280;29352;48.708;9.290;2024-03-02T13:10:04;96414.31;;;12.84;42.19
43741;BME280;29352;48.708;9.290;2024-03-02T13:12:30;96420.09;;;12.25;42.48
43741;BME280;29352;48.708;9.290;2024-03-02T13:14:58;96408.69;;;13.37;41.31